sensor_id;sensor_type;location;lat;lon;timestamp;P1;durP1;ratioP1;P2;durP2;ratioP2
59442;SDS011;45247;47.466;19.004;2024-01-11T00:02:06;41.03;;;16.83;;
59442;SDS011;45247;47.466;19.004;2024-01-11T00:04:34;36.70;;;15.38;;
59442;SDS011;45247;47.466;19.004;2024-01-11T00:07:02;35.75;;;14.82;;
59442;SDS011;45247;47.466;19.004;2024-01-11T00:09:32;31.25;;;15.38;;
59442;SDS011;45247;47.466;19.004;2024-01-11T00:12:00;41.13;;;18.08;;
59442;SDS011;45247;47.466;19.004;2024-01-11T00:14:28;36.83;;;17.67;;
59442;SDS011;45247;47.466;19.004;2024-01-11T00:16:57;38.38;;;18.55;;
59442;SDS011;45247;47.466;19.004;2024-01-11T00:19:25;42.25;;;18.38;;
59442;SDS011;45247;47.466;19.004;2024-01-11T00:21:53;34.88;;;17.05;;
59442;SDS011;45247;47.466;19.004;2024-01-11T00:24:21;39.58;;;17.02;;
59442;SDS011;45247;47.466;19.004;2024-01-11T00:26:50;34.20;;;15.98;;
59442;SDS011;45247;47.466;19.004;2024-01-11T00:29:19;42.63;;;16.90;;
59442;SDS011;45247;47.466;19.004;2024-01-11T00:31:47;37.78;;;16.42;;
59442;SDS011;45247;47.466;19.004;2024-01-11T00:34:15;38.35;;;17.00;;
59442;SDS011;45247;47.466;19.004;2024-01-11T00:36:43;34.88;;;15.65;;
59442;SDS011;45247;47.466;19.004;2024-01-11T00:39:11;33.00;;;15.15;;
59442;SDS011;45247;47.466;19.004;2024-01-11T00:41:39;34.25;;;15.55;;
59442;SDS011;45247;47.466;19.004;2024-01-11T00:44:09;34.00;;;16.15;;
59442;SDS011;45247;47.466;19.004;2024-01-11T00:46:38;40.55;;;18.40;;
59442;SDS011;45247;47.466;19.004;2024-01-11T00:49:07;43.58;;;19.17;;
59442;SDS011;45247;47.466;19.004;2024-01-11T00:51:38;46.25;;;17.90;;
59442;SDS011;45247;47.466;19.004;2024-01-11T00:54:09;38.88;;;17.25;;
59442;SDS011;45247;47.466;19.004;2024-01-11T00:56:37;38.38;;;16.20;;
59442;SDS011;45247;47.466;19.004;2024-01-11T00:59:06;42.58;;;18.23;;
59442;SDS011;45247;47.466;19.004;2024-01-11T01:01:35;38.67;;;18.23;;
59442;SDS011;45247;47.466;19.004;2024-01-11T01:04:03;41.42;;;16.50;;
59442;SDS011;45247;47.466;19.004;2024-01-11T01:06:32;39.80;;;17.67;;
59442;SDS011;45247;47.466;19.004;2024-01-11T01:09:00;37.25;;;17.20;;
59442;SDS011;45247;47.466;19.004;2024-01-11T01:11:29;38.95;;;16.38;;
59442;SDS011;45247;47.466;19.004;2024-01-11T01:13:57;54.25;;;22.52;;
59442;SDS011;45247;47.466;19.004;2024-01-11T01:16:25;48.25;;;19.13;;
59442;SDS011;45247;47.466;19.004;2024-01-11T01:18:55;36.70;;;16.88;;
59442;SDS011;45247;47.466;19.004;2024-01-11T01:21:23;41.90;;;17.52;;
59442;SDS011;45247;47.466;19.004;2024-01-11T01:23:51;35.25;;;16.20;;
59442;SDS011;45247;47.466;19.004;2024-01-11T01:26:19;38.22;;;16.17;;
59442;SDS011;45247;47.466;19.004;2024-01-11T01:28:48;33.15;;;14.35;;
59442;SDS011;45247;47.466;19.004;2024-01-11T01:31:16;34.83;;;15.15;;
59442;SDS011;45247;47.466;19.004;2024-01-11T01:33:44;33.17;;;15.23;;
59442;SDS011;45247;47.466;19.004;2024-01-11T01:36:14;37.35;;;15.85;;
59442;SDS011;45247;47.466;19.004;2024-01-11T01:38:42;34.83;;;15.20;;
59442;SDS011;45247;47.466;19.004;2024-01-11T01:41:10;29.23;;;13.50;;
59442;SDS011;45247;47.466;19.004;2024-01-11T01:43:38;34.17;;;14.70;;
59442;SDS011;45247;47.466;19.004;2024-01-11T01:46:06;29.17;;;14.02;;
59442;SDS011;45247;47.466;19.004;2024-01-11T01:48:35;35.95;;;15.57;;
59442;SDS011;45247;47.466;19.004;2024-01-11T01:51:04;30.60;;;14.88;;
59442;SDS011;45247;47.466;19.004;2024-01-11T01:53:35;32.55;;;13.82;;
59442;SDS011;45247;47.466;19.004;2024-01-11T01:56:04;31.75;;;14.63;;
59442;SDS011;45247;47.466;19.004;2024-01-11T01:58:34;33.78;;;14.88;;
59442;SDS011;45247;47.466;19.004;2024-01-11T02:01:03;29.20;;;13.57;;
59442;SDS011;45247;47.466;19.004;2024-01-11T02:03:35;35.17;;;14.35;;
59442;SDS011;45247;47.466;19.004;2024-01-11T02:06:04;32.20;;;15.43;;
59442;SDS011;45247;47.466;19.004;2024-01-11T02:08:33;41.20;;;18.77;;
59442;SDS011;45247;47.466;19.004;2024-01-11T02:11:04;30.85;;;13.57;;
59442;SDS011;45247;47.466;19.004;2024-01-11T02:13:33;33.53;;;14.65;;
59442;SDS011;45247;47.466;19.004;2024-01-11T02:16:01;36.83;;;14.98;;
59442;SDS011;45247;47.466;19.004;2024-01-11T02:18:29;29.50;;;12.73;;
59442;SDS011;45247;47.466;19.004;2024-01-11T02:20:58;32.95;;;15.48;;
59442;SDS011;45247;47.466;19.004;2024-01-11T02:23:26;33.83;;;14.98;;
59442;SDS011;45247;47.466;19.004;2024-01-11T02:25:56;40.13;;;14.45;;
59442;SDS011;45247;47.466;19.004;2024-01-11T02:28:24;30.77;;;14.00;;
59442;SDS011;45247;47.466;19.004;2024-01-11T02:30:52;28.23;;;13.88;;
59442;SDS011;45247;47.466;19.004;2024-01-11T02:33:21;30.40;;;13.50;;
59442;SDS011;45247;47.466;19.004;2024-01-11T02:35:50;34.22;;;14.95;;
59442;SDS011;45247;47.466;19.004;2024-01-11T02:38:18;31.02;;;13.55;;
59442;SDS011;45247;47.466;19.004;2024-01-11T02:40:46;38.28;;;15.38;;
59442;SDS011;45247;47.466;19.004;2024-01-11T02:43:18;34.30;;;14.70;;
59442;SDS011;45247;47.466;19.004;2024-01-11T02:45:46;25.70;;;12.32;;
59442;SDS011;45247;47.466;19.004;2024-01-11T02:48:14;28.50;;;14.27;;
59442;SDS011;45247;47.466;19.004;2024-01-11T02:50:43;28.83;;;13.70;;
59442;SDS011;45247;47.466;19.004;2024-01-11T02:53:11;36.42;;;16.90;;
59442;SDS011;45247;47.466;19.004;2024-01-11T02:55:39;31.80;;;15.55;;
59442;SDS011;45247;47.466;19.004;2024-01-11T02:58:07;30.60;;;14.10;;
59442;SDS011;45247;47.466;19.004;2024-01-11T03:00:37;28.90;;;13.10;;
59442;SDS011;45247;47.466;19.004;2024-01-11T03:03:05;29.77;;;14.70;;
59442;SDS011;45247;47.466;19.004;2024-01-11T03:05:33;32.25;;;13.88;;
59442;SDS011;45247;47.466;19.004;2024-01-11T03:08:02;29.27;;;12.77;;
59442;SDS011;45247;47.466;19.004;2024-01-11T03:10:30;27.67;;;13.70;;
59442;SDS011;45247;47.466;19.004;2024-01-11T03:12:59;29.33;;;14.10;;
59442;SDS011;45247;47.466;19.004;2024-01-11T03:15:27;31.77;;;13.20;;
59442;SDS011;45247;47.466;19.004;2024-01-11T03:17:57;26.92;;;13.32;;
59442;SDS011;45247;47.466;19.004;2024-01-11T03:20:25;36.83;;;16.05;;
59442;SDS011;45247;47.466;19.004;2024-01-11T03:22:53;32.47;;;12.57;;
59442;SDS011;45247;47.466;19.004;2024-01-11T03:25:22;30.30;;;13.00;;
59442;SDS011;45247;47.466;19.004;2024-01-11T03:27:50;36.20;;;14.68;;
59442;SDS011;45247;47.466;19.004;2024-01-11T03:30:18;27.63;;;12.75;;
59442;SDS011;45247;47.466;19.004;2024-01-11T03:32:46;31.55;;;14.07;;
59442;SDS011;45247;47.466;19.004;2024-01-11T03:35:17;28.92;;;13.65;;
59442;SDS011;45247;47.466;19.004;2024-01-11T03:37:46;32.40;;;13.65;;
59442;SDS011;45247;47.466;19.004;2024-01-11T03:40:14;32.03;;;13.85;;
59442;SDS011;45247;47.466;19.004;2024-01-11T03:42:42;29.02;;;12.93;;
59442;SDS011;45247;47.466;19.004;2024-01-11T03:45:10;27.98;;;13.10;;
59442;SDS011;45247;47.466;19.004;2024-01-11T03:47:38;30.55;;;13.45;;
59442;SDS011;45247;47.466;19.004;2024-01-11T03:50:08;30.10;;;12.40;;
59442;SDS011;45247;47.466;19.004;2024-01-11T03:52:38;22.90;;;11.65;;
59442;SDS011;45247;47.466;19.004;2024-01-11T03:55:07;24.63;;;11.82;;
59442;SDS011;45247;47.466;19.004;2024-01-11T03:57:35;27.52;;;12.80;;
59442;SDS011;45247;47.466;19.004;2024-01-11T04:00:04;27.30;;;13.73;;
59442;SDS011;45247;47.466;19.004;2024-01-11T04:02:37;32.97;;;14.95;;
59442;SDS011;45247;47.466;19.004;2024-01-11T04:05:05;33.22;;;14.23;;
59442;SDS011;45247;47.466;19.004;2024-01-11T04:07:34;32.55;;;15.25;;
59442;SDS011;45247;47.466;19.004;2024-01-11T04:10:03;29.00;;;13.57;;
59442;SDS011;45247;47.466;19.004;2024-01-11T04:12:32;32.95;;;14.38;;
59442;SDS011;45247;47.466;19.004;2024-01-11T04:15:00;28.50;;;13.77;;
59442;SDS011;45247;47.466;19.004;2024-01-11T04:17:29;38.70;;;15.65;;
59442;SDS011;45247;47.466;19.004;2024-01-11T04:19:57;32.90;;;15.23;;
59442;SDS011;45247;47.466;19.004;2024-01-11T04:22:27;38.35;;;17.13;;
59442;SDS011;45247;47.466;19.004;2024-01-11T04:24:55;28.23;;;13.32;;
59442;SDS011;45247;47.466;19.004;2024-01-11T04:27:25;28.17;;;13.65;;
59442;SDS011;45247;47.466;19.004;2024-01-11T04:29:53;32.95;;;13.30;;
59442;SDS011;45247;47.466;19.004;2024-01-11T04:32:21;25.23;;;12.13;;
59442;SDS011;45247;47.466;19.004;2024-01-11T04:34:49;27.55;;;12.68;;
59442;SDS011;45247;47.466;19.004;2024-01-11T04:37:17;27.50;;;13.43;;
59442;SDS011;45247;47.466;19.004;2024-01-11T04:39:46;25.30;;;11.90;;
59442;SDS011;45247;47.466;19.004;2024-01-11T04:42:14;28.15;;;12.35;;
59442;SDS011;45247;47.466;19.004;2024-01-11T04:44:44;31.85;;;13.00;;
59442;SDS011;45247;47.466;19.004;2024-01-11T04:47:12;30.17;;;12.95;;
59442;SDS011;45247;47.466;19.004;2024-01-11T04:49:40;34.30;;;13.48;;
59442;SDS011;45247;47.466;19.004;2024-01-11T04:52:08;30.40;;;13.82;;
59442;SDS011;45247;47.466;19.004;2024-01-11T04:54:36;39.17;;;14.15;;
59442;SDS011;45247;47.466;19.004;2024-01-11T04:57:05;35.85;;;15.38;;
59442;SDS011;45247;47.466;19.004;2024-01-11T04:59:33;27.20;;;11.82;;
59442;SDS011;45247;47.466;19.004;2024-01-11T05:02:03;28.83;;;13.90;;
59442;SDS011;45247;47.466;19.004;2024-01-11T05:04:31;28.20;;;14.00;;
59442;SDS011;45247;47.466;19.004;2024-01-11T05:06:59;32.25;;;13.75;;
59442;SDS011;45247;47.466;19.004;2024-01-11T05:09:28;26.75;;;12.23;;
59442;SDS011;45247;47.466;19.004;2024-01-11T05:11:56;27.77;;;13.52;;
59442;SDS011;45247;47.466;19.004;2024-01-11T05:14:24;32.13;;;13.80;;
59442;SDS011;45247;47.466;19.004;2024-01-11T05:16:52;32.92;;;15.18;;
59442;SDS011;45247;47.466;19.004;2024-01-11T05:19:22;26.15;;;13.57;;
59442;SDS011;45247;47.466;19.004;2024-01-11T05:21:50;31.63;;;13.70;;
59442;SDS011;45247;47.466;19.004;2024-01-11T05:24:18;31.38;;;13.88;;
59442;SDS011;45247;47.466;19.004;2024-01-11T05:26:46;67.28;;;23.92;;
59442;SDS011;45247;47.466;19.004;2024-01-11T05:29:14;36.30;;;15.98;;
59442;SDS011;45247;47.466;19.004;2024-01-11T05:31:43;31.25;;;13.77;;
59442;SDS011;45247;47.466;19.004;2024-01-11T05:34:12;27.52;;;13.02;;
59442;SDS011;45247;47.466;19.004;2024-01-11T05:36:42;29.05;;;13.80;;
59442;SDS011;45247;47.466;19.004;2024-01-11T05:39:10;30.73;;;13.98;;
59442;SDS011;45247;47.466;19.004;2024-01-11T05:41:39;28.30;;;13.70;;
59442;SDS011;45247;47.466;19.004;2024-01-11T05:44:07;31.40;;;12.85;;
59442;SDS011;45247;47.466;19.004;2024-01-11T05:46:35;26.77;;;12.70;;
59442;SDS011;45247;47.466;19.004;2024-01-11T05:49:03;27.73;;;12.23;;
59442;SDS011;45247;47.466;19.004;2024-01-11T05:51:32;27.55;;;11.68;;
59442;SDS011;45247;47.466;19.004;2024-01-11T05:54:01;24.25;;;11.38;;
59442;SDS011;45247;47.466;19.004;2024-01-11T05:56:30;28.70;;;14.02;;
59442;SDS011;45247;47.466;19.004;2024-01-11T05:58:58;36.33;;;12.30;;
59442;SDS011;45247;47.466;19.004;2024-01-11T06:01:26;27.80;;;12.13;;
59442;SDS011;45247;47.466;19.004;2024-01-11T06:03:55;26.45;;;11.10;;
59442;SDS011;45247;47.466;19.004;2024-01-11T06:06:23;27.67;;;11.50;;
59442;SDS011;45247;47.466;19.004;2024-01-11T06:08:51;25.38;;;12.35;;
59442;SDS011;45247;47.466;19.004;2024-01-11T06:11:21;23.38;;;10.80;;
59442;SDS011;45247;47.466;19.004;2024-01-11T06:13:49;20.33;;;10.15;;
59442;SDS011;45247;47.466;19.004;2024-01-11T06:16:17;20.02;;;10.60;;
59442;SDS011;45247;47.466;19.004;2024-01-11T06:18:45;29.10;;;12.18;;
59442;SDS011;45247;47.466;19.004;2024-01-11T06:21:14;23.45;;;12.00;;
59442;SDS011;45247;47.466;19.004;2024-01-11T06:23:43;23.27;;;10.70;;
59442;SDS011;45247;47.466;19.004;2024-01-11T06:26:12;22.10;;;11.40;;
59442;SDS011;45247;47.466;19.004;2024-01-11T06:28:41;26.20;;;11.88;;
59442;SDS011;45247;47.466;19.004;2024-01-11T06:31:09;21.38;;;10.95;;
59442;SDS011;45247;47.466;19.004;2024-01-11T06:33:38;22.65;;;10.85;;
59442;SDS011;45247;47.466;19.004;2024-01-11T06:36:06;24.42;;;10.82;;
59442;SDS011;45247;47.466;19.004;2024-01-11T06:38:35;21.98;;;10.18;;
59442;SDS011;45247;47.466;19.004;2024-01-11T06:41:03;17.80;;;8.75;;
59442;SDS011;45247;47.466;19.004;2024-01-11T06:43:31;25.58;;;10.75;;
59442;SDS011;45247;47.466;19.004;2024-01-11T06:46:03;26.38;;;11.15;;
59442;SDS011;45247;47.466;19.004;2024-01-11T06:48:31;24.55;;;12.82;;
59442;SDS011;45247;47.466;19.004;2024-01-11T06:51:00;31.45;;;11.88;;
59442;SDS011;45247;47.466;19.004;2024-01-11T06:53:28;29.25;;;13.77;;
59442;SDS011;45247;47.466;19.004;2024-01-11T06:55:56;37.45;;;17.15;;
59442;SDS011;45247;47.466;19.004;2024-01-11T06:58:24;27.83;;;13.32;;
59442;SDS011;45247;47.466;19.004;2024-01-11T07:00:53;30.77;;;14.52;;
59442;SDS011;45247;47.466;19.004;2024-01-11T07:03:22;41.15;;;17.15;;
59442;SDS011;45247;47.466;19.004;2024-01-11T07:05:51;33.85;;;16.38;;
59442;SDS011;45247;47.466;19.004;2024-01-11T07:08:20;45.42;;;20.92;;
59442;SDS011;45247;47.466;19.004;2024-01-11T07:10:48;33.95;;;15.57;;
59442;SDS011;45247;47.466;19.004;2024-01-11T07:13:17;32.13;;;16.30;;
59442;SDS011;45247;47.466;19.004;2024-01-11T07:15:46;37.45;;;15.90;;
59442;SDS011;45247;47.466;19.004;2024-01-11T07:18:14;34.58;;;17.00;;
59442;SDS011;45247;47.466;19.004;2024-01-11T07:20:44;31.63;;;16.20;;
59442;SDS011;45247;47.466;19.004;2024-01-11T07:23:12;30.80;;;15.65;;
59442;SDS011;45247;47.466;19.004;2024-01-11T07:25:41;45.95;;;17.85;;
59442;SDS011;45247;47.466;19.004;2024-01-11T07:28:09;37.97;;;16.27;;
59442;SDS011;45247;47.466;19.004;2024-01-11T07:30:37;39.05;;;17.90;;
59442;SDS011;45247;47.466;19.004;2024-01-11T07:33:06;47.60;;;22.48;;
59442;SDS011;45247;47.466;19.004;2024-01-11T07:35:36;36.05;;;16.08;;
59442;SDS011;45247;47.466;19.004;2024-01-11T07:38:06;39.40;;;18.83;;
59442;SDS011;45247;47.466;19.004;2024-01-11T07:40:34;41.88;;;17.40;;
59442;SDS011;45247;47.466;19.004;2024-01-11T07:43:04;41.63;;;18.35;;
59442;SDS011;45247;47.466;19.004;2024-01-11T07:45:32;40.03;;;17.42;;
59442;SDS011;45247;47.466;19.004;2024-01-11T07:48:00;33.40;;;17.08;;
59442;SDS011;45247;47.466;19.004;2024-01-11T07:50:30;39.75;;;18.13;;
59442;SDS011;45247;47.466;19.004;2024-01-11T07:52:57;37.90;;;17.02;;
59442;SDS011;45247;47.466;19.004;2024-01-11T07:55:27;39.55;;;17.85;;
59442;SDS011;45247;47.466;19.004;2024-01-11T07:57:55;34.50;;;16.70;;
59442;SDS011;45247;47.466;19.004;2024-01-11T08:00:23;42.08;;;18.58;;
59442;SDS011;45247;47.466;19.004;2024-01-11T08:02:51;47.17;;;19.95;;
59442;SDS011;45247;47.466;19.004;2024-01-11T08:05:21;35.88;;;17.10;;
59442;SDS011;45247;47.466;19.004;2024-01-11T08:07:49;34.50;;;17.52;;
59442;SDS011;45247;47.466;19.004;2024-01-11T08:10:17;36.35;;;16.98;;
59442;SDS011;45247;47.466;19.004;2024-01-11T08:12:47;39.65;;;17.60;;
59442;SDS011;45247;47.466;19.004;2024-01-11T08:15:15;41.13;;;18.70;;
59442;SDS011;45247;47.466;19.004;2024-01-11T08:17:44;43.15;;;18.45;;
59442;SDS011;45247;47.466;19.004;2024-01-11T08:20:14;43.58;;;18.73;;
59442;SDS011;45247;47.466;19.004;2024-01-11T08:22:42;42.88;;;18.98;;
59442;SDS011;45247;47.466;19.004;2024-01-11T08:25:12;37.00;;;17.63;;
59442;SDS011;45247;47.466;19.004;2024-01-11T08:27:41;38.70;;;18.30;;
59442;SDS011;45247;47.466;19.004;2024-01-11T08:30:11;36.20;;;17.13;;
59442;SDS011;45247;47.466;19.004;2024-01-11T08:32:40;37.45;;;18.50;;
59442;SDS011;45247;47.466;19.004;2024-01-11T08:35:09;42.35;;;19.35;;
59442;SDS011;45247;47.466;19.004;2024-01-11T08:37:38;37.08;;;18.00;;
59442;SDS011;45247;47.466;19.004;2024-01-11T08:40:07;36.55;;;16.60;;
59442;SDS011;45247;47.466;19.004;2024-01-11T08:42:37;35.08;;;16.10;;
59442;SDS011;45247;47.466;19.004;2024-01-11T08:45:08;32.70;;;15.85;;
59442;SDS011;45247;47.466;19.004;2024-01-11T08:47:38;32.40;;;16.17;;
59442;SDS011;45247;47.466;19.004;2024-01-11T08:50:07;28.95;;;14.60;;
59442;SDS011;45247;47.466;19.004;2024-01-11T08:52:36;34.33;;;15.02;;
59442;SDS011;45247;47.466;19.004;2024-01-11T08:55:05;28.98;;;14.57;;
59442;SDS011;45247;47.466;19.004;2024-01-11T08:57:34;34.33;;;14.65;;
59442;SDS011;45247;47.466;19.004;2024-01-11T09:00:04;28.80;;;14.05;;
59442;SDS011;45247;47.466;19.004;2024-01-11T09:02:33;33.40;;;14.85;;
59442;SDS011;45247;47.466;19.004;2024-01-11T09:05:03;31.42;;;14.60;;
59442;SDS011;45247;47.466;19.004;2024-01-11T09:07:35;28.02;;;14.85;;
59442;SDS011;45247;47.466;19.004;2024-01-11T09:10:04;34.67;;;15.05;;
59442;SDS011;45247;47.466;19.004;2024-01-11T09:12:35;40.25;;;17.27;;
59442;SDS011;45247;47.466;19.004;2024-01-11T09:15:03;35.17;;;16.17;;
59442;SDS011;45247;47.466;19.004;2024-01-11T09:17:32;43.10;;;18.88;;
59442;SDS011;45247;47.466;19.004;2024-01-11T09:20:00;35.35;;;16.63;;
59442;SDS011;45247;47.466;19.004;2024-01-11T09:22:29;26.27;;;12.50;;
59442;SDS011;45247;47.466;19.004;2024-01-11T09:24:57;44.22;;;16.05;;
59442;SDS011;45247;47.466;19.004;2024-01-11T09:27:26;33.35;;;15.40;;
59442;SDS011;45247;47.466;19.004;2024-01-11T09:29:54;31.20;;;13.95;;
59442;SDS011;45247;47.466;19.004;2024-01-11T09:32:22;16.42;;;7.22;;
59442;SDS011;45247;47.466;19.004;2024-01-11T09:34:52;12.13;;;6.15;;
59442;SDS011;45247;47.466;19.004;2024-01-11T09:37:20;10.70;;;5.57;;
59442;SDS011;45247;47.466;19.004;2024-01-11T09:39:49;13.27;;;6.22;;
59442;SDS011;45247;47.466;19.004;2024-01-11T09:42:17;9.90;;;6.03;;
59442;SDS011;45247;47.466;19.004;2024-01-11T09:44:46;10.25;;;5.80;;
59442;SDS011;45247;47.466;19.004;2024-01-11T09:47:15;11.43;;;6.47;;
59442;SDS011;45247;47.466;19.004;2024-01-11T09:49:45;9.85;;;5.75;;
59442;SDS011;45247;47.466;19.004;2024-01-11T09:52:15;11.05;;;5.38;;
59442;SDS011;45247;47.466;19.004;2024-01-11T09:54:46;11.60;;;5.38;;
59442;SDS011;45247;47.466;19.004;2024-01-11T09:57:16;13.75;;;6.82;;
59442;SDS011;45247;47.466;19.004;2024-01-11T09:59:51;14.30;;;6.75;;
59442;SDS011;45247;47.466;19.004;2024-01-11T10:02:23;14.27;;;7.03;;
59442;SDS011;45247;47.466;19.004;2024-01-11T10:04:53;16.45;;;7.45;;
59442;SDS011;45247;47.466;19.004;2024-01-11T10:07:22;29.17;;;7.85;;
59442;SDS011;45247;47.466;19.004;2024-01-11T10:09:51;17.02;;;9.10;;
59442;SDS011;45247;47.466;19.004;2024-01-11T10:12:21;24.20;;;10.55;;
59442;SDS011;45247;47.466;19.004;2024-01-11T10:14:52;21.92;;;9.90;;
59442;SDS011;45247;47.466;19.004;2024-01-11T10:17:20;18.70;;;8.57;;
59442;SDS011;45247;47.466;19.004;2024-01-11T10:19:52;20.50;;;9.45;;
59442;SDS011;45247;47.466;19.004;2024-01-11T10:22:22;28.05;;;11.57;;
59442;SDS011;45247;47.466;19.004;2024-01-11T10:24:57;26.40;;;11.20;;
59442;SDS011;45247;47.466;19.004;2024-01-11T10:27:39;21.33;;;10.65;;
59442;SDS011;45247;47.466;19.004;2024-01-11T10:30:10;23.83;;;11.25;;
59442;SDS011;45247;47.466;19.004;2024-01-11T10:32:43;20.33;;;10.02;;
59442;SDS011;45247;47.466;19.004;2024-01-11T10:35:12;20.85;;;10.52;;
59442;SDS011;45247;47.466;19.004;2024-01-11T10:37:41;21.40;;;10.52;;
59442;SDS011;45247;47.466;19.004;2024-01-11T10:40:11;19.02;;;9.43;;
59442;SDS011;45247;47.466;19.004;2024-01-11T10:42:45;20.23;;;11.13;;
59442;SDS011;45247;47.466;19.004;2024-01-11T10:45:17;23.17;;;11.93;;
59442;SDS011;45247;47.466;19.004;2024-01-11T10:47:49;20.75;;;11.07;;
59442;SDS011;45247;47.466;19.004;2024-01-11T10:50:19;26.63;;;10.32;;
59442;SDS011;45247;47.466;19.004;2024-01-11T10:53:00;19.80;;;11.20;;
59442;SDS011;45247;47.466;19.004;2024-01-11T10:55:34;24.63;;;12.13;;
59442;SDS011;45247;47.466;19.004;2024-01-11T10:58:04;22.77;;;12.85;;
59442;SDS011;45247;47.466;19.004;2024-01-11T11:00:32;28.67;;;13.48;;
59442;SDS011;45247;47.466;19.004;2024-01-11T11:03:03;29.80;;;12.70;;
59442;SDS011;45247;47.466;19.004;2024-01-11T11:05:34;24.90;;;13.00;;
59442;SDS011;45247;47.466;19.004;2024-01-11T11:08:03;27.00;;;13.30;;
59442;SDS011;45247;47.466;19.004;2024-01-11T11:10:33;34.65;;;15.00;;
59442;SDS011;45247;47.466;19.004;2024-01-11T11:13:03;27.08;;;14.25;;
59442;SDS011;45247;47.466;19.004;2024-01-11T11:15:33;33.75;;;14.65;;
59442;SDS011;45247;47.466;19.004;2024-01-11T11:18:03;34.10;;;15.65;;
59442;SDS011;45247;47.466;19.004;2024-01-11T11:20:34;28.63;;;14.07;;
59442;SDS011;45247;47.466;19.004;2024-01-11T11:23:05;29.83;;;15.80;;
59442;SDS011;45247;47.466;19.004;2024-01-11T11:25:36;32.17;;;16.55;;
59442;SDS011;45247;47.466;19.004;2024-01-11T11:28:06;28.33;;;15.00;;
59442;SDS011;45247;47.466;19.004;2024-01-11T11:30:36;28.20;;;13.75;;
59442;SDS011;45247;47.466;19.004;2024-01-11T11:33:09;32.53;;;15.88;;
59442;SDS011;45247;47.466;19.004;2024-01-11T11:35:38;31.38;;;14.40;;
59442;SDS011;45247;47.466;19.004;2024-01-11T11:38:06;30.45;;;13.85;;
59442;SDS011;45247;47.466;19.004;2024-01-11T11:40:36;27.45;;;14.18;;
59442;SDS011;45247;47.466;19.004;2024-01-11T11:43:08;29.58;;;14.65;;
59442;SDS011;45247;47.466;19.004;2024-01-11T11:45:37;28.42;;;13.48;;
59442;SDS011;45247;47.466;19.004;2024-01-11T11:51:07;26.40;;;13.95;;
59442;SDS011;45247;47.466;19.004;2024-01-11T11:53:36;24.92;;;14.43;;
59442;SDS011;45247;47.466;19.004;2024-01-11T11:56:06;26.13;;;14.20;;
59442;SDS011;45247;47.466;19.004;2024-01-11T11:58:37;28.15;;;14.45;;
59442;SDS011;45247;47.466;19.004;2024-01-11T12:01:06;21.65;;;12.13;;
59442;SDS011;45247;47.466;19.004;2024-01-11T12:03:35;22.60;;;12.75;;
59442;SDS011;45247;47.466;19.004;2024-01-11T12:06:06;30.98;;;14.10;;
59442;SDS011;45247;47.466;19.004;2024-01-11T12:08:36;30.08;;;14.35;;
59442;SDS011;45247;47.466;19.004;2024-01-11T12:11:07;25.13;;;13.63;;
59442;SDS011;45247;47.466;19.004;2024-01-11T12:13:35;28.77;;;13.25;;
59442;SDS011;45247;47.466;19.004;2024-01-11T12:16:05;23.33;;;12.93;;
59442;SDS011;45247;47.466;19.004;2024-01-11T12:18:33;26.23;;;13.18;;
59442;SDS011;45247;47.466;19.004;2024-01-11T12:21:01;22.63;;;12.55;;
59442;SDS011;45247;47.466;19.004;2024-01-11T12:23:30;23.55;;;13.55;;
59442;SDS011;45247;47.466;19.004;2024-01-11T12:26:00;23.92;;;11.65;;
59442;SDS011;45247;47.466;19.004;2024-01-11T12:28:29;23.50;;;11.85;;
59442;SDS011;45247;47.466;19.004;2024-01-11T12:30:59;29.08;;;12.25;;
59442;SDS011;45247;47.466;19.004;2024-01-11T12:33:29;24.83;;;12.93;;
59442;SDS011;45247;47.466;19.004;2024-01-11T12:35:57;31.25;;;13.32;;
59442;SDS011;45247;47.466;19.004;2024-01-11T12:38:26;25.42;;;13.77;;
59442;SDS011;45247;47.466;19.004;2024-01-11T12:40:54;30.25;;;13.70;;
59442;SDS011;45247;47.466;19.004;2024-01-11T12:43:22;28.05;;;14.23;;
59442;SDS011;45247;47.466;19.004;2024-01-11T12:45:50;24.40;;;13.27;;
59442;SDS011;45247;47.466;19.004;2024-01-11T12:48:20;27.95;;;14.98;;
59442;SDS011;45247;47.466;19.004;2024-01-11T12:50:50;25.73;;;13.57;;
59442;SDS011;45247;47.466;19.004;2024-01-11T12:53:39;31.27;;;13.52;;
59442;SDS011;45247;47.466;19.004;2024-01-11T12:56:08;26.75;;;13.93;;
59442;SDS011;45247;47.466;19.004;2024-01-11T12:58:37;30.08;;;13.27;;
59442;SDS011;45247;47.466;19.004;2024-01-11T13:01:06;22.67;;;12.55;;
59442;SDS011;45247;47.466;19.004;2024-01-11T13:03:35;21.83;;;12.65;;
59442;SDS011;45247;47.466;19.004;2024-01-11T13:06:05;27.05;;;13.77;;
59442;SDS011;45247;47.466;19.004;2024-01-11T13:08:35;28.42;;;14.70;;
59442;SDS011;45247;47.466;19.004;2024-01-11T13:11:06;26.45;;;13.20;;
59442;SDS011;45247;47.466;19.004;2024-01-11T13:13:34;22.00;;;12.07;;
59442;SDS011;45247;47.466;19.004;2024-01-11T13:16:03;27.23;;;13.90;;
59442;SDS011;45247;47.466;19.004;2024-01-11T13:18:32;25.27;;;13.13;;
59442;SDS011;45247;47.466;19.004;2024-01-11T13:21:01;28.10;;;14.27;;
59442;SDS011;45247;47.466;19.004;2024-01-11T13:23:31;26.60;;;13.85;;
59442;SDS011;45247;47.466;19.004;2024-01-11T13:26:00;26.27;;;13.35;;
59442;SDS011;45247;47.466;19.004;2024-01-11T13:28:29;24.70;;;14.15;;
59442;SDS011;45247;47.466;19.004;2024-01-11T13:30:57;27.33;;;13.35;;
59442;SDS011;45247;47.466;19.004;2024-01-11T13:33:26;25.75;;;13.85;;
59442;SDS011;45247;47.466;19.004;2024-01-11T13:35:54;25.70;;;13.55;;
59442;SDS011;45247;47.466;19.004;2024-01-11T13:38:22;28.77;;;14.15;;
59442;SDS011;45247;47.466;19.004;2024-01-11T13:40:52;28.13;;;13.73;;
59442;SDS011;45247;47.466;19.004;2024-01-11T13:43:20;25.38;;;13.57;;
59442;SDS011;45247;47.466;19.004;2024-01-11T13:45:49;27.00;;;13.05;;
59442;SDS011;45247;47.466;19.004;2024-01-11T13:48:17;26.52;;;14.40;;
59442;SDS011;45247;47.466;19.004;2024-01-11T13:50:45;27.38;;;14.02;;
59442;SDS011;45247;47.466;19.004;2024-01-11T13:53:14;28.85;;;14.75;;
59442;SDS011;45247;47.466;19.004;2024-01-11T13:55:42;25.15;;;13.98;;
59442;SDS011;45247;47.466;19.004;2024-01-11T13:58:12;25.80;;;13.10;;
59442;SDS011;45247;47.466;19.004;2024-01-11T14:00:40;33.08;;;16.45;;
59442;SDS011;45247;47.466;19.004;2024-01-11T14:03:09;25.85;;;14.25;;
59442;SDS011;45247;47.466;19.004;2024-01-11T14:05:37;26.58;;;14.95;;
59442;SDS011;45247;47.466;19.004;2024-01-11T14:08:05;29.73;;;13.75;;
59442;SDS011;45247;47.466;19.004;2024-01-11T14:10:34;24.95;;;13.63;;
59442;SDS011;45247;47.466;19.004;2024-01-11T14:13:02;28.30;;;14.23;;
59442;SDS011;45247;47.466;19.004;2024-01-11T14:15:32;27.95;;;15.90;;
59442;SDS011;45247;47.466;19.004;2024-01-11T14:18:00;26.05;;;13.95;;
59442;SDS011;45247;47.466;19.004;2024-01-11T14:20:29;30.65;;;14.48;;
59442;SDS011;45247;47.466;19.004;2024-01-11T14:22:57;28.48;;;15.10;;